AEE7309 LGAV-LTFM
Flight info
| Callsign | AEE7309 |
|---|---|
| Flight time | 0h 35m |
| Altitude | 38000 |
| Route | LGAV/03R N0441F380 KRO2E KRO UN604 INBET INBE1C LTFM/35R |
| Aircraft | A20N/M-SDE2E3FGHIJ1RWXY/LB1 |
Departure
| Time | 2026-05-05 18:49 |
|---|---|
| Airport | Athens Eleftherios Venizelos International Airport (LGAV) |
Arrival
| Time | 2026-05-05 19:24 |
|---|---|
| Airport | İstanbul Airport (LTFM) |
| Time | Latitude | Longitude | Altitude | Speed | Heading |
|---|---|---|---|---|---|
| 2026-05-05 18:33 | 37.93327 | 23.94587 | 285 ft | 0 kts | 311° |
| 2026-05-05 18:42 | 37.93323 | 23.94592 | 285 ft | 2 kts | 308° |
| 2026-05-05 18:43 | 37.93314 | 23.94609 | 285 ft | 2 kts | 300° |
| 2026-05-05 18:43 | 37.93306 | 23.94628 | 285 ft | 2 kts | 290° |
| 2026-05-05 18:43 | 37.93302 | 23.94648 | 285 ft | 2 kts | 274° |
| 2026-05-05 18:43 | 37.93303 | 23.94669 | 285 ft | 2 kts | 253° |
| 2026-05-05 18:44 | 37.93310 | 23.94688 | 288 ft | 2 kts | 234° |
| 2026-05-05 18:44 | 37.93320 | 23.94702 | 294 ft | 1 kts | 221° |
| 2026-05-05 18:44 | 37.93323 | 23.94706 | 290 ft | 0 kts | 218° |
| 2026-05-05 18:44 | 37.93321 | 23.94704 | 290 ft | 0 kts | 218° |
| 2026-05-05 18:45 | 37.93320 | 23.94703 | 294 ft | 1 kts | 218° |
| 2026-05-05 18:46 | 37.93304 | 23.94687 | 287 ft | 5 kts | 218° |
| 2026-05-05 18:46 | 37.93270 | 23.94653 | 285 ft | 8 kts | 217° |
| 2026-05-05 18:46 | 37.93217 | 23.94611 | 289 ft | 10 kts | 201° |
| 2026-05-05 18:46 | 37.93140 | 23.94598 | 286 ft | 12 kts | 179° |
| 2026-05-05 18:47 | 37.93068 | 23.94654 | 287 ft | 13 kts | 143° |
| 2026-05-05 18:47 | 37.92980 | 23.94641 | 292 ft | 15 kts | 212° |
| 2026-05-05 18:47 | 37.92892 | 23.94560 | 293 ft | 16 kts | 217° |
| 2026-05-05 18:47 | 37.92797 | 23.94468 | 292 ft | 18 kts | 217° |
| 2026-05-05 18:48 | 37.92691 | 23.94368 | 293 ft | 20 kts | 217° |
| 2026-05-05 18:48 | 37.92573 | 23.94299 | 294 ft | 19 kts | 160° |
| 2026-05-05 18:48 | 37.92495 | 23.94429 | 293 ft | 20 kts | 92° |
| 2026-05-05 18:48 | 37.92591 | 23.94551 | 290 ft | 33 kts | 38° |
| 2026-05-05 18:49 | 37.93030 | 23.94964 | 287 ft | 120 kts | 37° |
| 2026-05-05 18:49 | 37.93865 | 23.95762 | 441 ft | 169 kts | 36° |
| 2026-05-05 18:49 | 37.94862 | 23.96704 | 1015 ft | 195 kts | 36° |
| 2026-05-05 18:49 | 37.96001 | 23.97787 | 1739 ft | 218 kts | 37° |
| 2026-05-05 18:50 | 37.97284 | 23.99022 | 2392 ft | 241 kts | 37° |
| 2026-05-05 18:50 | 37.98625 | 24.00322 | 3388 ft | 243 kts | 36° |
| 2026-05-05 18:50 | 37.99961 | 24.01617 | 4505 ft | 241 kts | 36° |
| 2026-05-05 18:50 | 38.01296 | 24.02909 | 5558 ft | 242 kts | 35° |
| 2026-05-05 18:51 | 38.02650 | 24.04212 | 6527 ft | 247 kts | 35° |
| 2026-05-05 18:51 | 38.04023 | 24.05533 | 7480 ft | 249 kts | 35° |
| 2026-05-05 18:51 | 38.05408 | 24.06864 | 8468 ft | 251 kts | 35° |
| 2026-05-05 18:51 | 38.06794 | 24.08199 | 9497 ft | 251 kts | 35° |
| 2026-05-05 18:52 | 38.08155 | 24.09618 | 10378 ft | 258 kts | 45° |
| 2026-05-05 18:52 | 38.09045 | 24.11628 | 11168 ft | 270 kts | 71° |
| 2026-05-05 18:52 | 38.09125 | 24.14053 | 11963 ft | 284 kts | 98° |
| 2026-05-05 18:52 | 38.08528 | 24.16489 | 12751 ft | 293 kts | 106° |
| 2026-05-05 18:53 | 38.07828 | 24.18934 | 13590 ft | 297 kts | 106° |
| 2026-05-05 18:53 | 38.07115 | 24.21417 | 14334 ft | 302 kts | 106° |
| 2026-05-05 18:53 | 38.06401 | 24.23952 | 15023 ft | 307 kts | 105° |
| 2026-05-05 18:53 | 38.05687 | 24.26533 | 15707 ft | 313 kts | 105° |
| 2026-05-05 18:54 | 38.04968 | 24.29158 | 16395 ft | 318 kts | 105° |
| 2026-05-05 18:54 | 38.04239 | 24.31831 | 17073 ft | 323 kts | 105° |
| 2026-05-05 18:54 | 38.03499 | 24.34544 | 17765 ft | 328 kts | 105° |
| 2026-05-05 18:54 | 38.02748 | 24.37297 | 18420 ft | 333 kts | 105° |
| 2026-05-05 18:55 | 38.01983 | 24.40092 | 19013 ft | 338 kts | 105° |
| 2026-05-05 18:55 | 38.01207 | 24.42923 | 19581 ft | 342 kts | 105° |
| 2026-05-05 18:55 | 38.00424 | 24.45791 | 20145 ft | 346 kts | 103° |
| 2026-05-05 18:55 | 38.00073 | 24.48767 | 20650 ft | 340 kts | 80° |
| 2026-05-05 18:56 | 38.00594 | 24.51578 | 21178 ft | 328 kts | 57° |
| 2026-05-05 18:56 | 38.01838 | 24.53953 | 21640 ft | 325 kts | 42° |
| 2026-05-05 18:56 | 38.03392 | 24.56115 | 21794 ft | 339 kts | 39° |
| 2026-05-05 18:56 | 38.05058 | 24.58339 | 21948 ft | 357 kts | 40° |
| 2026-05-05 18:57 | 38.06768 | 24.60724 | 22106 ft | 374 kts | 42° |
| 2026-05-05 18:57 | 38.08511 | 24.63272 | 22264 ft | 390 kts | 43° |
| 2026-05-05 18:57 | 38.10289 | 24.65949 | 22589 ft | 401 kts | 44° |
| 2026-05-05 18:57 | 38.12078 | 24.68683 | 23159 ft | 404 kts | 44° |
| 2026-05-05 18:58 | 38.13881 | 24.71447 | 23704 ft | 408 kts | 44° |
| 2026-05-05 18:58 | 38.15699 | 24.74233 | 24205 ft | 411 kts | 43° |
| 2026-05-05 18:58 | 38.17527 | 24.77032 | 24721 ft | 412 kts | 43° |
| 2026-05-05 18:58 | 38.19364 | 24.79845 | 25229 ft | 415 kts | 43° |
| 2026-05-05 18:59 | 38.21207 | 24.82667 | 25771 ft | 415 kts | 43° |
| 2026-05-05 18:59 | 38.23058 | 24.85503 | 26202 ft | 419 kts | 43° |
| 2026-05-05 18:59 | 38.24924 | 24.88362 | 26638 ft | 421 kts | 43° |
| 2026-05-05 18:59 | 38.26802 | 24.91243 | 27093 ft | 424 kts | 42° |
| 2026-05-05 19:00 | 38.28689 | 24.94139 | 27526 ft | 426 kts | 42° |
| 2026-05-05 19:00 | 38.30585 | 24.97052 | 27934 ft | 429 kts | 42° |
| 2026-05-05 19:00 | 38.32491 | 24.99986 | 28339 ft | 431 kts | 42° |
| 2026-05-05 19:00 | 38.34408 | 25.02938 | 28749 ft | 434 kts | 42° |
| 2026-05-05 19:01 | 38.36336 | 25.05908 | 29161 ft | 436 kts | 43° |
| 2026-05-05 19:01 | 38.38269 | 25.08891 | 29548 ft | 438 kts | 43° |
| 2026-05-05 19:01 | 38.40214 | 25.11894 | 29899 ft | 440 kts | 43° |
| 2026-05-05 19:01 | 38.42168 | 25.14915 | 30228 ft | 443 kts | 43° |
| 2026-05-05 19:02 | 38.44133 | 25.17954 | 30533 ft | 445 kts | 43° |
| 2026-05-05 19:02 | 38.46106 | 25.21008 | 30847 ft | 447 kts | 43° |
| 2026-05-05 19:02 | 38.48089 | 25.24079 | 31160 ft | 449 kts | 43° |
| 2026-05-05 19:02 | 38.52866 | 25.31482 | 32131 ft | 448 kts | 43° |
| 2026-05-05 19:03 | 38.68665 | 25.56081 | 34918 ft | 446 kts | 44° |
| 2026-05-05 19:03 | 38.84355 | 25.80730 | 36987 ft | 445 kts | 45° |
| 2026-05-05 19:03 | 38.99906 | 26.05372 | 38153 ft | 440 kts | 45° |
| 2026-05-05 19:03 | 39.15355 | 26.30009 | 37988 ft | 451 kts | 46° |
| 2026-05-05 19:04 | 39.32979 | 26.50108 | 38103 ft | 426 kts | 23° |
| 2026-05-05 19:04 | 39.47941 | 26.63104 | 37948 ft | 434 kts | 30° |
| 2026-05-05 19:04 | 39.59305 | 26.73353 | 38081 ft | 437 kts | 30° |
| 2026-05-05 19:04 | 39.69254 | 26.82346 | 38032 ft | 435 kts | 30° |
| 2026-05-05 19:05 | 39.79146 | 26.91321 | 37003 ft | 431 kts | 31° |
| 2026-05-05 19:05 | 39.88971 | 27.00272 | 35985 ft | 431 kts | 30° |
| 2026-05-05 19:05 | 39.98894 | 27.09341 | 33112 ft | 436 kts | 30° |
| 2026-05-05 19:05 | 40.08563 | 27.18218 | 30116 ft | 417 kts | 30° |
| 2026-05-05 19:06 | 40.12304 | 27.21653 | 29364 ft | 420 kts | 31° |
| 2026-05-05 19:06 | 40.14709 | 27.23861 | 28808 ft | 423 kts | 31° |
| 2026-05-05 19:06 | 40.19808 | 27.27085 | 27746 ft | 405 kts | 12° |
| 2026-05-05 19:06 | 40.40727 | 27.28954 | 23631 ft | 378 kts | 1° |
| 2026-05-05 19:07 | 40.48044 | 27.29479 | 22267 ft | 364 kts | 2° |
| 2026-05-05 19:07 | 40.60662 | 27.30372 | 19819 ft | 359 kts | 1° |
| 2026-05-05 19:07 | 40.80829 | 27.34382 | 16093 ft | 341 kts | 21° |
| 2026-05-05 19:07 | 40.82994 | 27.35588 | 15784 ft | 336 kts | 20° |
| 2026-05-05 19:08 | 40.95969 | 27.45224 | 13948 ft | 337 kts | 53° |
| 2026-05-05 19:08 | 40.97298 | 27.59705 | 13175 ft | 363 kts | 114° |
| 2026-05-05 19:08 | 40.93540 | 27.64145 | 12790 ft | 374 kts | 152° |
| 2026-05-05 19:08 | 40.89293 | 27.67928 | 12432 ft | 366 kts | 129° |
| 2026-05-05 19:09 | 40.86496 | 27.73409 | 12024 ft | 357 kts | 113° |
| 2026-05-05 19:09 | 40.85400 | 27.76360 | 11808 ft | 354 kts | 110° |
| 2026-05-05 19:09 | 40.84376 | 27.79309 | 11665 ft | 353 kts | 110° |
| 2026-05-05 19:09 | 40.81959 | 27.90371 | 11172 ft | 311 kts | 77° |
| 2026-05-05 19:10 | 40.82343 | 27.94398 | 10951 ft | 295 kts | 78° |
| 2026-05-05 19:10 | 40.82555 | 27.97070 | 10661 ft | 289 kts | 78° |
| 2026-05-05 19:10 | 40.82742 | 27.99677 | 10544 ft | 286 kts | 79° |
| 2026-05-05 19:10 | 40.82926 | 28.02309 | 10432 ft | 288 kts | 79° |
| 2026-05-05 19:11 | 40.83105 | 28.04935 | 10320 ft | 287 kts | 79° |
| 2026-05-05 19:11 | 40.83281 | 28.07550 | 10227 ft | 286 kts | 79° |
| 2026-05-05 19:11 | 40.83457 | 28.10165 | 10106 ft | 286 kts | 79° |
| 2026-05-05 19:11 | 40.83630 | 28.12743 | 10001 ft | 286 kts | 79° |
| 2026-05-05 19:12 | 40.83807 | 28.15389 | 9876 ft | 285 kts | 79° |
| 2026-05-05 19:12 | 40.83979 | 28.17962 | 9722 ft | 285 kts | 79° |
| 2026-05-05 19:12 | 40.84152 | 28.20565 | 9518 ft | 284 kts | 79° |
| 2026-05-05 19:12 | 40.84323 | 28.23156 | 9317 ft | 283 kts | 79° |
| 2026-05-05 19:13 | 40.84494 | 28.25742 | 9118 ft | 283 kts | 79° |
| 2026-05-05 19:13 | 40.84665 | 28.28326 | 8917 ft | 282 kts | 79° |
| 2026-05-05 19:13 | 40.84832 | 28.30885 | 8728 ft | 280 kts | 79° |
| 2026-05-05 19:13 | 40.85003 | 28.33473 | 8518 ft | 283 kts | 79° |
| 2026-05-05 19:14 | 40.85170 | 28.36039 | 8322 ft | 279 kts | 79° |
| 2026-05-05 19:14 | 40.85331 | 28.38567 | 8201 ft | 270 kts | 79° |
| 2026-05-05 19:14 | 40.85480 | 28.40965 | 8079 ft | 255 kts | 79° |
| 2026-05-05 19:14 | 40.85626 | 28.43265 | 7804 ft | 248 kts | 78° |
| 2026-05-05 19:15 | 40.85782 | 28.45496 | 7584 ft | 241 kts | 75° |
| 2026-05-05 19:15 | 40.89119 | 28.58762 | 6487 ft | 233 kts | 64° |
| 2026-05-05 19:15 | 40.90847 | 28.65434 | 5967 ft | 232 kts | 65° |
| 2026-05-05 19:15 | 40.91882 | 28.68695 | 5686 ft | 226 kts | 47° |
| 2026-05-05 19:16 | 40.92615 | 28.69644 | 5581 ft | 221 kts | 31° |
| 2026-05-05 19:16 | 40.93945 | 28.70632 | 5424 ft | 219 kts | 25° |
| 2026-05-05 19:16 | 40.95285 | 28.71594 | 5267 ft | 219 kts | 26° |
| 2026-05-05 19:16 | 40.96611 | 28.72565 | 5114 ft | 215 kts | 25° |
| 2026-05-05 19:17 | 40.97974 | 28.73224 | 4968 ft | 204 kts | 8° |
| 2026-05-05 19:17 | 40.99382 | 28.73350 | 5027 ft | 209 kts | 360° |
| 2026-05-05 19:17 | 41.00825 | 28.73310 | 5037 ft | 206 kts | 358° |
| 2026-05-05 19:17 | 41.02254 | 28.73279 | 5030 ft | 206 kts | 359° |
| 2026-05-05 19:18 | 41.03689 | 28.73249 | 4809 ft | 204 kts | 359° |
| 2026-05-05 19:18 | 41.05076 | 28.73221 | 4502 ft | 192 kts | 359° |
| 2026-05-05 19:18 | 41.06333 | 28.73195 | 4283 ft | 167 kts | 359° |
| 2026-05-05 19:18 | 41.07404 | 28.73174 | 4062 ft | 143 kts | 359° |
| 2026-05-05 19:19 | 41.08342 | 28.73154 | 3867 ft | 128 kts | 359° |
| 2026-05-05 19:19 | 41.09244 | 28.73136 | 3691 ft | 131 kts | 359° |
| 2026-05-05 19:19 | 41.10147 | 28.73117 | 3515 ft | 129 kts | 359° |
| 2026-05-05 19:19 | 41.11043 | 28.73098 | 3341 ft | 129 kts | 359° |
| 2026-05-05 19:20 | 41.11946 | 28.73080 | 3159 ft | 130 kts | 359° |
| 2026-05-05 19:20 | 41.12849 | 28.73061 | 2980 ft | 130 kts | 359° |
| 2026-05-05 19:20 | 41.13756 | 28.73042 | 2810 ft | 130 kts | 359° |
| 2026-05-05 19:20 | 41.14660 | 28.73024 | 2627 ft | 130 kts | 359° |
| 2026-05-05 19:21 | 41.15573 | 28.73004 | 2454 ft | 132 kts | 359° |
| 2026-05-05 19:21 | 41.16484 | 28.72986 | 2262 ft | 130 kts | 359° |
| 2026-05-05 19:21 | 41.17392 | 28.72967 | 2095 ft | 131 kts | 359° |
| 2026-05-05 19:21 | 41.18301 | 28.72947 | 1918 ft | 132 kts | 359° |
| 2026-05-05 19:22 | 41.19215 | 28.72929 | 1740 ft | 131 kts | 359° |
| 2026-05-05 19:22 | 41.20130 | 28.72909 | 1554 ft | 132 kts | 359° |
| 2026-05-05 19:22 | 41.21042 | 28.72891 | 1377 ft | 131 kts | 359° |
| 2026-05-05 19:22 | 41.21953 | 28.72871 | 1194 ft | 131 kts | 359° |
| 2026-05-05 19:23 | 41.22862 | 28.72853 | 1016 ft | 131 kts | 359° |
| 2026-05-05 19:23 | 41.23777 | 28.72833 | 828 ft | 132 kts | 359° |
| 2026-05-05 19:23 | 41.24694 | 28.72815 | 662 ft | 132 kts | 359° |
| 2026-05-05 19:23 | 41.25610 | 28.72795 | 482 ft | 131 kts | 359° |
| 2026-05-05 19:24 | 41.26522 | 28.72776 | 317 ft | 129 kts | 359° |
| 2026-05-05 19:24 | 41.27346 | 28.72757 | 293 ft | 109 kts | 359° |
| 2026-05-05 19:24 | 41.27948 | 28.72744 | 275 ft | 60 kts | 358° |
| 2026-05-05 19:24 | 41.28234 | 28.72763 | 267 ft | 30 kts | 12° |
| 2026-05-05 19:25 | 41.28387 | 28.72831 | 265 ft | 8 kts | 28° |
| 2026-05-05 19:25 | 41.28430 | 28.72861 | 264 ft | 0 kts | 28° |
| 2026-05-05 19:26 | 41.28431 | 28.72862 | 264 ft | 1 kts | 28° |
| 2026-05-05 19:26 | 41.28454 | 28.72881 | 264 ft | 6 kts | 38° |
| 2026-05-05 19:26 | 41.28461 | 28.72932 | 264 ft | 6 kts | 116° |
| 2026-05-05 19:26 | 41.28419 | 28.72959 | 266 ft | 7 kts | 176° |
| 2026-05-05 19:27 | 41.28362 | 28.72961 | 267 ft | 9 kts | 178° |
| 2026-05-05 19:27 | 41.28296 | 28.72964 | 269 ft | 10 kts | 178° |
| 2026-05-05 19:27 | 41.28222 | 28.72964 | 272 ft | 11 kts | 181° |
| 2026-05-05 19:27 | 41.28143 | 28.72964 | 277 ft | 12 kts | 178° |
| 2026-05-05 19:28 | 41.28060 | 28.72968 | 281 ft | 12 kts | 178° |
| 2026-05-05 19:28 | 41.27974 | 28.72971 | 283 ft | 13 kts | 180° |
| 2026-05-05 19:28 | 41.27884 | 28.72970 | 286 ft | 13 kts | 178° |
| 2026-05-05 19:28 | 41.27793 | 28.72974 | 287 ft | 13 kts | 178° |
| 2026-05-05 19:29 | 41.27701 | 28.72973 | 292 ft | 13 kts | 177° |
| 2026-05-05 19:29 | 41.27612 | 28.72975 | 295 ft | 13 kts | 178° |
| 2026-05-05 19:29 | 41.27520 | 28.72977 | 301 ft | 14 kts | 179° |
| 2026-05-05 19:29 | 41.27421 | 28.72979 | 302 ft | 15 kts | 179° |
| 2026-05-05 19:30 | 41.27313 | 28.72981 | 306 ft | 16 kts | 179° |
| 2026-05-05 19:30 | 41.27198 | 28.72984 | 304 ft | 17 kts | 179° |
| 2026-05-05 19:30 | 41.27075 | 28.72986 | 306 ft | 19 kts | 180° |
| 2026-05-05 19:30 | 41.26935 | 28.72988 | 309 ft | 20 kts | 177° |
| 2026-05-05 19:31 | 41.26856 | 28.73045 | 308 ft | 12 kts | 99° |
| 2026-05-05 19:31 | 41.26868 | 28.73162 | 310 ft | 13 kts | 85° |
| 2026-05-05 19:31 | 41.26868 | 28.73277 | 313 ft | 13 kts | 90° |
| 2026-05-05 19:31 | 41.26870 | 28.73414 | 313 ft | 16 kts | 89° |
| 2026-05-05 19:32 | 41.26828 | 28.73540 | 313 ft | 15 kts | 176° |
| 2026-05-05 19:32 | 41.26767 | 28.73536 | 313 ft | 0 kts | 178° |